Time;durP1;ratioP1;P1;durP2;ratioP2;P2;SDS_P1;SDS_P2;PMS_P1;PMS_P2;Temp;Humidity;BMP_temperature;BMP_pressure;BME280_temperature;BME280_humidity;BME280_pressure;Samples;Min_cycle;Max_cycle;Signal;HPM_P1;HPM_P2
2021/06/25 00:00:11;;;;;;;19.23;14.93;;;16.90;99.90;;;18.39;80.34;100868.22;6103958;23;20093;-90
2021/06/25 00:02:39;;;;;;;15.15;12.27;;;16.90;99.90;;;18.37;80.41;100879.09;6104381;23;20396;-89
2021/06/25 00:05:10;;;;;;;17.02;15.20;;;16.80;99.90;;;18.35;80.01;100867.41;6103901;23;20065;-90
2021/06/25 00:07:38;;;;;;;19.90;16.33;;;16.90;99.90;;;18.35;80.20;100863.75;6105017;23;20017;-90
2021/06/25 00:10:07;;;;;;;20.40;15.48;;;16.90;99.90;;;18.33;80.20;100858.50;6104298;23;20030;-93
2021/06/25 00:12:34;;;;;;;24.17;17.92;;;16.80;99.90;;;18.30;79.77;100852.88;6103813;23;20010;-89
2021/06/25 00:15:01;;;;;;;21.02;15.73;;;16.80;99.90;;;18.29;80.03;100859.72;6128716;23;20041;-89
2021/06/25 00:17:27;;;;;;;25.25;18.10;;;16.80;99.90;;;18.29;79.51;100857.72;6104937;23;20391;-90
2021/06/25 00:19:54;;;;;;;18.13;14.95;;;16.80;99.90;;;18.27;79.45;100859.31;6129674;23;20017;-90
2021/06/25 00:22:26;;;;;;;17.52;14.75;;;16.80;99.90;;;18.24;79.71;100869.41;6104770;23;20017;-89
2021/06/25 00:24:52;;;;;;;18.10;14.90;;;16.70;99.90;;;18.21;79.56;100864.56;6105993;23;20097;-88
2021/06/25 00:27:22;;;;;;;20.55;16.35;;;16.70;99.90;;;18.19;79.75;100864.19;6105710;23;20013;-94
2021/06/25 00:29:49;;;;;;;17.17;14.65;;;16.70;99.90;;;18.17;79.89;100868.63;6105578;23;20014;-89
2021/06/25 00:32:24;;;;;;;18.83;14.65;;;16.70;99.90;;;18.16;80.18;100861.34;6131276;23;20014;-89
2021/06/25 00:34:51;;;;;;;20.30;14.80;;;16.60;99.90;;;18.14;80.20;100860.97;6130799;23;20002;-87
2021/06/25 00:37:21;;;;;;;21.65;15.95;;;16.60;99.90;;;18.14;80.30;100853.25;6131213;23;20021;-87
2021/06/25 00:39:52;;;;;;;26.00;17.80;;;16.70;99.90;;;18.11;80.40;100854.06;6110515;23;20024;-87
2021/06/25 00:42:18;;;;;;;19.05;16.08;;;16.60;99.90;;;18.10;80.64;100858.13;6134917;23;20101;-90
2021/06/25 00:44:45;;;;;;;21.73;16.55;;;16.70;99.90;;;18.08;79.70;100857.72;6105476;23;20014;-90
2021/06/25 00:47:20;;;;;;;19.23;16.08;;;16.60;99.90;;;18.08;79.84;100856.91;6105483;23;20010;-90
2021/06/25 00:49:47;;;;;;;17.55;13.63;;;16.60;99.90;;;18.07;79.89;100861.78;6131836;23;20014;-92
2021/06/25 00:52:18;;;;;;;19.70;15.10;;;16.60;99.90;;;18.06;79.88;100850.84;6105410;23;20035;-92
2021/06/25 00:54:51;;;;;;;20.05;15.75;;;16.60;99.90;;;18.05;79.91;100849.22;6106853;23;20006;-89
2021/06/25 00:57:22;;;;;;;20.05;15.60;;;16.50;99.90;;;18.00;80.20;100844.81;6105177;23;20033;-89
2021/06/25 00:59:49;;;;;;;19.70;16.23;;;16.60;99.90;;;17.95;80.60;100853.66;6106938;23;20278;-89
2021/06/25 01:02:26;;;;;;;22.98;17.35;;;16.60;99.90;;;17.93;80.88;100856.09;6106666;23;20306;-91
2021/06/25 01:04:54;;;;;;;20.90;16.70;;;16.50;99.90;;;17.92;80.55;100857.31;6106646;23;20414;-91
2021/06/25 01:07:23;;;;;;;21.05;15.63;;;16.40;99.90;;;17.90;80.40;100852.06;6106159;23;20030;-93
2021/06/25 01:09:51;;;;;;;22.55;16.90;;;16.40;99.90;;;17.84;80.35;100847.22;6106063;23;20301;-90
2021/06/25 01:12:27;;;;;;;17.70;14.98;;;16.40;99.90;;;17.81;80.68;100848.84;6106057;23;20010;-91
2021/06/25 01:14:54;;;;;;;20.35;16.10;;;16.40;99.90;;;17.78;80.96;100844.00;6105910;23;20014;-91
2021/06/25 01:17:35;;;;;;;19.95;16.27;;;16.40;99.90;;;17.76;81.06;100856.88;6106634;23;20033;-91
2021/06/25 01:20:11;;;;;;;20.30;16.17;;;16.30;99.90;;;17.69;81.54;100860.50;6105855;23;20006;-91
2021/06/25 01:22:42;;;;;;;23.73;17.95;;;16.20;99.90;;;17.63;81.65;100856.47;6106094;23;20432;-90
2021/06/25 01:25:18;;;;;;;23.98;17.77;;;16.20;99.90;;;17.61;81.63;100855.25;6131636;23;20032;-90
2021/06/25 01:27:49;;;;;;;23.80;19.08;;;16.20;99.90;;;17.54;82.02;100852.38;6107080;23;20010;-88
2021/06/25 01:30:29;;;;;;;23.50;19.05;;;16.10;99.90;;;17.49;82.09;100849.97;6107068;23;20017;-90
2021/06/25 01:33:05;;;;;;;22.58;16.52;;;16.00;99.90;;;17.38;82.57;100842.28;6106845;23;20017;-92
2021/06/25 01:35:33;;;;;;;;;;;16.10;99.90;;;17.30;82.94;100851.13;6108089;23;20006;-91
2021/06/25 01:38:00;;;;;;;26.90;19.08;;;15.90;99.90;;;17.22;83.20;100855.13;6132913;23;20370;-90
2021/06/25 01:40:27;;;;;;;25.70;19.55;;;15.80;99.90;;;17.14;83.30;100853.50;6107992;23;20041;-88
2021/06/25 01:42:54;;;;;;;24.42;19.55;;;15.70;99.90;;;17.03;83.60;100859.09;6109325;23;20436;-88
2021/06/25 01:45:31;;;;;;;28.88;22.48;;;15.60;99.90;;;16.93;84.38;100854.22;6109310;23;20002;-90
2021/06/25 01:48:00;;;;;;;27.92;21.13;;;15.60;99.90;;;16.89;84.50;100858.25;6110850;23;20102;-91
2021/06/25 01:50:38;;;;;;;30.02;23.17;;;15.50;99.90;;;16.78;85.08;100852.53;6110285;23;20014;-89
2021/06/25 01:53:13;;;;;;;33.30;23.08;;;15.40;99.90;;;16.74;85.63;100852.50;6110464;23;20353;-90
2021/06/25 01:55:41;;;;;;;28.77;22.33;;;15.40;99.90;;;16.72;85.46;100852.09;6110236;23;20450;-92
2021/06/25 01:58:23;;;;;;;32.05;22.85;;;15.40;99.90;;;16.68;85.43;100851.28;6110870;23;20312;-89
2021/06/25 08:03:24;;;;;;;11.50;5.68;;;23.30;56.90;;;24.96;34.58;100845.56;6165154;23;20026;-87
2021/06/25 08:05:50;;;;;;;7.57;5.57;;;23.20;57.90;;;24.92;33.38;100854.22;6188049;23;20040;-87
2021/06/25 08:08:16;;;;;;;11.00;6.22;;;23.20;55.90;;;23.59;35.67;100840.13;6190453;23;20423;-89
2021/06/25 08:10:43;;;;;;;6.85;5.57;;;22.50;57.60;;;24.28;34.78;100846.56;6188497;23;20002;-85
2021/06/25 08:13:09;;;;;;;8.77;4.55;;;22.60;58.00;;;25.09;34.58;100840.69;6162022;23;20002;-87
2021/06/25 08:15:35;;;;;;;7.97;3.70;;;22.90;58.90;;;25.63;32.56;100838.63;6186962;23;20021;-87
2021/06/25 08:18:01;;;;;;;8.25;5.00;;;23.20;56.10;;;26.00;33.34;100845.59;6162983;23;20017;-86
2021/06/25 08:20:27;;;;;;;6.45;5.75;;;23.60;57.50;;;25.57;33.34;100842.50;6162255;23;20416;-87
2021/06/25 08:22:53;;;;;;;8.68;5.70;;;23.60;56.50;;;25.63;33.73;100837.81;6161933;23;20363;-88
2021/06/25 08:25:19;;;;;;;7.20;5.00;;;23.50;57.20;;;24.07;35.61;100827.13;6161457;23;20044;-87
2021/06/25 08:27:46;;;;;;;7.32;4.53;;;22.90;57.70;;;24.38;36.45;100836.13;6163888;23;20399;-88
2021/06/25 08:30:13;;;;;;;7.78;5.03;;;22.70;60.10;;;24.42;35.57;100837.66;6161352;23;20064;-86
2021/06/25 08:32:39;;;;;;;6.88;4.53;;;22.70;58.50;;;24.25;37.42;100833.19;6163452;23;20012;-87
2021/06/25 08:35:07;;;;;;;7.35;5.50;;;22.60;61.80;;;24.60;36.58;100826.53;6169532;23;20115;-88
2021/06/25 08:37:33;;;;;;;8.63;6.25;;;22.70;61.10;;;24.67;37.12;100817.78;6180630;23;20001;-87
2021/06/25 08:39:59;;;;;;;8.40;6.07;;;22.90;61.00;;;25.15;36.98;100818.84;6195623;23;20024;-88
2021/06/25 08:42:25;;;;;;;10.45;6.28;;;23.10;61.70;;;24.97;37.78;100812.88;6189103;23;20395;-87
2021/06/25 08:44:51;;;;;;;8.32;7.18;;;23.30;63.00;;;24.10;40.45;100814.81;6162762;23;20285;-86
2021/06/25 08:47:23;;;;;;;10.63;6.78;;;22.90;64.90;;;24.68;39.65;100818.59;6161129;23;20050;-87
2021/06/25 08:49:51;;;;;;;12.00;8.15;;;23.00;65.30;;;24.81;39.39;100819.44;6160675;23;20084;-86
2021/06/25 08:52:17;;;;;;;10.60;7.07;;;23.10;65.00;;;25.62;38.67;100824.78;6161012;23;20001;-86
2021/06/25 08:54:44;;;;;;;9.05;7.32;;;23.40;67.10;;;25.78;38.30;100821.00;6161364;23;20013;-87
2021/06/25 08:57:10;;;;;;;12.25;8.43;;;23.60;65.50;;;26.20;36.88;100817.53;6160750;23;20012;-88
2021/06/25 08:59:37;;;;;;;12.60;8.70;;;24.00;63.30;;;26.17;37.04;100811.91;6161743;23;20002;-87
2021/06/25 09:02:04;;;;;;;12.27;9.05;;;24.10;63.00;;;25.66;38.44;100816.88;6161504;23;20001;-87
2021/06/25 09:04:41;;;;;;;11.93;8.50;;;24.00;63.20;;;25.08;39.78;100805.56;6159246;23;20013;-89
2021/06/25 09:07:09;;;;;;;14.20;9.60;;;23.80;65.40;;;25.37;38.62;100814.09;6157557;23;20009;-88
2021/06/25 09:09:49;;;;;;;13.10;8.00;;;23.80;63.90;;;25.32;41.75;100813.84;6158848;23;20112;-88
2021/06/25 09:12:23;;;;;;;12.13;8.20;;;23.50;69.40;;;25.85;40.03;100807.25;6159917;23;20006;-86
2021/06/25 09:15:14;;;;;;;12.77;8.98;;;23.70;68.40;;;25.87;39.48;100798.22;6158210;23;20014;-87
2021/06/25 09:18:04;;;;;;;13.40;9.52;;;23.80;68.20;;;25.35;41.13;100804.38;6157335;23;20013;-86
2021/06/25 09:20:41;;;;;;;11.27;7.80;;;23.80;68.10;;;26.07;40.56;100796.69;6159687;23;20009;-87
2021/06/25 09:23:36;;;;;;;10.43;8.40;;;23.90;69.80;;;25.85;40.44;100810.13;6164817;23;20029;-87
2021/06/25 09:26:11;;;;;;;10.48;7.82;;;24.00;69.40;;;25.47;40.94;100800.72;6165797;23;20010;-88
2021/06/25 09:28:48;;;;;;;9.52;6.80;;;23.70;69.50;;;26.08;41.45;100814.66;6159669;23;20088;-89
2021/06/25 09:31:26;;;;;;;13.38;9.32;;;24.00;72.40;;;25.89;39.54;100796.50;6159746;23;20013;-88
2021/06/25 09:33:56;;;;;;;11.73;8.10;;;23.90;67.60;;;25.80;40.99;100789.88;6162294;23;20028;-87
2021/06/25 09:36:38;;;;;;;9.80;8.00;;;23.80;70.30;;;25.56;41.58;100798.81;6159447;23;20025;-87
2021/06/25 09:39:15;;;;;;;12.02;9.07;;;23.50;71.90;;;25.59;40.47;100802.84;6159023;23;20152;-87
2021/06/25 09:41:46;;;;;;;14.48;9.40;;;23.60;70.60;;;25.97;40.56;100797.88;6160927;23;20010;-90
2021/06/25 09:44:20;;;;;;;12.25;8.75;;;23.80;71.80;;;25.86;41.20;100797.41;6163862;23;20033;-88
2021/06/25 09:46:54;;;;;;;14.30;9.70;;;23.80;72.30;;;26.15;40.00;100792.34;6163565;23;20044;-87
2021/06/25 09:49:31;;;;;;;14.75;10.45;;;24.00;70.30;;;26.16;41.19;100787.44;6188215;23;20009;-90
2021/06/25 09:52:03;;;;;;;15.60;10.23;;;24.00;72.00;;;26.95;40.50;100791.94;6187917;23;20016;-90
2021/06/25 09:54:31;;;;;;;12.82;10.02;;;24.50;72.30;;;27.49;37.86;100785.75;6163525;23;20088;-88
2021/06/25 09:57:13;;;;;;;12.18;8.98;;;25.00;68.00;;;27.45;39.14;100793.72;6165151;23;20006;-88
2021/06/25 10:02:27;;;;;;;14.13;9.05;;;24.90;66.10;;;27.16;38.59;100791.13;6179994;23;20033;-88
2021/06/25 10:05:15;;;;;;;13.63;10.32;;;24.80;68.00;;;26.67;39.50;100797.44;6164265;23;20009;-89
2021/06/25 10:07:41;;;;;;;14.07;10.18;;;24.60;68.00;;;26.18;38.98;100784.91;6163996;23;20010;-88
2021/06/25 10:10:10;;;;;;;18.17;10.07;;;24.30;65.60;;;26.07;39.49;100782.38;6188519;23;20012;-89
2021/06/25 10:12:43;;;;;;;13.77;10.10;;;24.00;67.50;;;25.21;41.79;100782.72;6169525;23;20002;-89
2021/06/25 10:15:10;;;;;;;12.73;10.05;;;23.80;70.00;;;25.14;42.66;100789.47;6170806;23;20141;-89
2021/06/25 10:17:39;;;;;;;12.95;9.60;;;23.50;71.60;;;25.25;42.71;100777.72;6166126;23;20006;-90
2021/06/25 10:20:12;;;;;;;12.45;9.35;;;23.40;73.50;;;24.96;43.76;100780.63;6160062;23;20404;-88
2021/06/25 10:22:51;;;;;;;12.15;9.05;;;23.20;75.90;;;24.96;43.52;100788.41;6159894;23;20009;-89
2021/06/25 10:25:18;;;;;;;14.35;10.63;;;23.00;77.60;;;24.44;44.26;100780.88;6159853;23;20020;-86
2021/06/25 10:27:50;;;;;;;12.27;10.27;;;22.80;77.10;;;24.50;44.21;100775.41;6159779;23;20009;-91
2021/06/25 10:30:17;;;;;;;14.25;10.32;;;22.80;78.60;;;24.85;44.33;100777.28;6158964;23;20092;-90
2021/06/25 10:32:44;;;;;;;15.95;10.70;;;22.90;79.30;;;24.10;44.11;100774.88;6184270;23;20005;-87
2021/06/25 10:35:13;;;;;;;14.05;9.48;;;22.60;76.90;;;24.11;45.64;100774.44;6160050;23;20014;-88
2021/06/25 10:37:46;;;;;;;14.77;9.60;;;22.50;81.90;;;23.99;45.01;100766.56;6161808;23;20056;-87
2021/06/25 10:40:25;;;;;;;13.65;10.40;;;22.50;80.70;;;23.58;46.35;100770.06;6159537;23;20012;-88
2021/06/25 10:42:54;;;;;;;13.82;10.27;;;22.40;82.10;;;24.74;43.54;100778.84;6160523;23;20451;-87
2021/06/25 10:45:43;;;;;;;16.02;10.52;;;22.90;79.40;;;25.84;42.95;100773.41;6160048;23;20120;-86
2021/06/25 10:48:09;;;;;;;15.18;10.57;;;23.70;79.20;;;26.16;40.39;100770.25;6159854;23;20014;-87
2021/06/25 10:50:37;;;;;;;13.45;9.80;;;24.00;72.50;;;25.95;42.48;100780.34;6158886;23;20009;-88
2021/06/25 10:53:18;;;;;;;11.43;9.73;;;23.90;77.00;;;25.74;40.70;100777.41;6157126;23;20033;-89
2021/06/25 10:56:03;;;;;;;10.10;8.77;;;23.70;71.90;;;25.54;42.46;100781.31;6184695;23;20024;-87
2021/06/25 10:58:31;;;;;;;11.48;8.55;;;23.50;75.40;;;25.28;42.64;100768.22;6157862;23;20009;-88
2021/06/25 11:01:01;;;;;;;13.13;9.82;;;23.40;76.30;;;24.97;42.69;100773.69;6157775;23;20068;-88
2021/06/25 11:03:38;;;;;;;11.65;9.43;;;23.20;76.00;;;24.72;44.02;100778.50;6174790;23;20008;-89
2021/06/25 11:06:26;;;;;;;15.05;10.57;;;22.90;77.50;;;24.47;44.79;100779.19;6178981;23;20198;-86
2021/06/25 11:09:07;;;;;;;12.30;9.98;;;22.70;80.70;;;24.17;46.46;100776.75;6156815;23;20010;-87
2021/06/25 11:11:34;;;;;;;13.55;10.10;;;22.40;88.30;;;24.03;45.97;100772.19;6157461;23;20009;-88
2021/06/25 11:14:01;;;;;;;13.20;10.00;;;22.30;86.20;;;24.17;46.27;100768.19;6157882;23;20009;-87
2021/06/25 11:16:29;;;;;;;13.73;10.05;;;22.30;88.90;;;24.25;45.97;100763.88;6157106;23;20048;-86
2021/06/25 11:18:58;;;;;;;17.33;12.63;;;22.40;88.30;;;24.00;45.29;100764.53;6157200;23;20419;-88
2021/06/25 11:21:43;;;;;;;14.10;10.82;;;22.50;84.00;;;24.48;46.38;100764.47;6156766;23;20005;-87
2021/06/25 11:24:11;;;;;;;17.30;12.88;;;22.70;89.10;;;24.96;44.35;100763.50;6158120;23;20013;-89
2021/06/25 11:26:57;;;;;;;16.63;12.73;;;23.20;84.10;;;25.05;44.61;100766.47;6157682;23;20084;-87
2021/06/25 11:29:49;;;;;;;17.70;12.80;;;23.30;83.80;;;25.58;43.44;100773.41;6159972;23;20035;-86
2021/06/25 11:32:29;;;;;;;15.02;11.18;;;23.50;82.10;;;25.72;43.55;100771.34;6158920;23;20009;-88
2021/06/25 11:34:56;;;;;;;18.38;12.55;;;23.80;82.80;;;25.97;42.40;100765.59;6161770;23;20006;-88
2021/06/25 11:38:01;;;;;;;16.45;10.93;;;24.00;78.50;;;26.61;42.30;100759.22;6160699;23;20005;-88
2021/06/25 11:40:50;;;;;;;19.23;12.05;;;24.40;80.30;;;27.14;42.29;100765.78;6136477;23;20041;-89
2021/06/25 11:43:20;;;;;;;17.60;12.02;;;25.10;78.00;;;27.82;40.14;100765.94;6160880;23;20013;-88
2021/06/25 11:45:50;;;;;;;21.25;13.32;;;25.60;73.60;;;27.57;39.35;100759.19;6190834;23;20010;-88
2021/06/25 11:48:16;;;;;;;19.80;12.27;;;25.70;69.00;;;27.33;38.87;100757.25;6176974;23;20009;-90
2021/06/25 11:50:44;;;;;;;17.25;12.82;;;25.40;68.40;;;26.76;40.43;100750.88;6177749;23;19997;-90
2021/06/25 11:53:11;;;;;;;18.17;12.43;;;25.00;70.20;;;26.58;40.98;100751.56;6168627;23;20032;-88
2021/06/25 11:55:43;;;;;;;17.15;11.93;;;24.80;71.10;;;26.24;40.70;100745.84;6161770;23;20009;-88
2021/06/25 11:58:20;;;;;;;14.88;11.98;;;24.80;70.20;;;25.84;41.47;100741.91;6162570;23;20012;-90
2021/06/25 12:00:46;;;;;;;15.88;11.82;;;24.40;70.30;;;26.09;41.39;100744.72;6187335;23;20006;-89
2021/06/25 12:03:12;;;;;;;11.95;9.15;;;24.30;71.10;;;26.61;42.37;100730.56;6162807;23;20117;-89
2021/06/25 12:05:44;;;;;;;18.33;11.63;;;24.50;76.10;;;26.28;40.35;100739.97;6162115;23;20012;-87
2021/06/25 12:08:16;;;;;;;14.48;10.00;;;24.60;70.10;;;27.15;40.57;100746.53;6161911;23;20029;-89
2021/06/25 12:11:00;;;;;;;11.57;10.00;;;25.10;72.60;;;27.84;37.98;100740.44;6164697;23;20218;-88
2021/06/25 12:13:30;;;;;;;13.05;10.40;;;25.60;68.10;;;27.15;38.35;100743.66;6161189;23;20013;-88
2021/06/25 12:15:56;;;;;;;13.65;10.30;;;25.70;64.90;;;26.55;38.91;100740.22;6161149;23;20012;-89
2021/06/25 12:23:52;;;;;;;13.55;10.38;;;24.80;67.10;;;25.58;41.07;100739.09;6110561;23;20009;-91
2021/06/25 14:23:52;;;;;;;13.73;10.40;;;22.50;76.40;;;24.40;43.00;100737.34;6158380;23;20021;-89
2021/06/25 14:26:27;;;;;;;14.73;10.30;;;22.60;75.60;;;24.57;42.70;100733.19;6167626;23;20016;-88
2021/06/25 14:29:39;;;;;;;11.68;9.25;;;22.60;75.00;;;24.58;43.87;100729.09;6169048;23;20009;-89
2021/06/25 14:32:26;;;;;;;12.38;10.75;;;22.70;78.40;;;24.51;42.71;100735.00;6104322;23;20009;-90
2021/06/25 14:34:52;;;;;;;12.65;10.82;;;22.70;74.80;;;24.50;43.13;100736.25;6171120;23;20012;-89
2021/06/25 14:37:19;;;;;;;10.75;8.90;;;22.70;75.60;;;24.61;42.49;100744.53;6169377;23;20024;-89
2021/06/25 14:40:00;;;;;;;17.35;9.95;;;22.80;75.10;;;24.43;43.28;100735.69;6167632;23;20044;-88
2021/06/25 14:42:26;;;;;;;13.48;9.77;;;22.80;76.10;;;24.54;43.71;100745.53;6164140;23;20005;-89
2021/06/25 14:44:54;;;;;;;14.07;10.18;;;22.80;77.20;;;24.55;43.11;100741.44;6190976;23;20029;-89
2021/06/25 14:47:21;;;;;;;13.73;10.40;;;22.70;75.90;;;24.57;44.39;100749.53;6167183;23;20009;-89
2021/06/25 14:49:56;;;;;;;15.10;10.05;;;22.70;78.90;;;24.36;44.24;100735.88;6164018;23;20015;-89
2021/06/25 14:56:08;;;;;;;14.85;10.38;;;22.50;77.60;;;24.25;44.03;100726.78;6158272;23;20025;-88
2021/06/25 14:59:50;;;;;;;11.65;10.05;;;22.50;78.00;;;24.28;44.58;100731.59;6078435;23;20022;-87
2021/06/25 15:05:59;;;;;;;16.25;12.20;;;22.50;81.60;;;23.91;45.19;100733.78;6184714;23;20076;-90
2021/06/25 15:08:25;;;;;;;12.90;10.10;;;22.40;80.70;;;24.09;45.21;100741.88;6154100;23;20068;-89
2021/06/25 15:11:02;;;;;;;14.07;11.15;;;22.40;82.50;;;24.08;45.26;100731.72;6162545;23;20331;-90
2021/06/25 15:13:27;;;;;;;12.98;10.05;;;22.30;82.80;;;24.06;45.01;100729.31;6189140;23;20009;-88
2021/06/25 15:16:20;;;;;;;13.63;10.80;;;22.30;82.40;;;24.03;45.00;100729.41;6188205;23;20414;-89
2021/06/25 15:19:49;;;;;;;13.55;10.48;;;22.30;83.40;;;23.98;44.52;100722.22;6165127;23;20009;-88
2021/06/25 15:23:09;;;;;;;11.55;9.73;;;22.30;81.60;;;24.07;44.87;100722.34;6137971;23;20024;-88
2021/06/25 15:25:48;;;;;;;13.73;9.77;;;22.30;82.70;;;24.08;44.67;100723.94;6159545;23;20012;-89
2021/06/25 15:29:18;;;;;;;12.13;9.98;;;22.30;81.40;;;24.10;44.60;100714.94;6162596;23;20028;-88
2021/06/25 15:32:19;;;;;;;11.90;10.43;;;22.30;80.10;;;23.99;44.81;100723.78;6188517;23;20418;-88
2021/06/25 15:34:46;;;;;;;13.07;9.85;;;22.40;80.70;;;23.94;45.04;100712.94;6162037;23;20017;-87
2021/06/25 15:37:28;;;;;;;12.63;9.85;;;22.30;81.50;;;24.12;45.28;100718.97;6189143;23;20001;-91
2021/06/25 15:39:54;;;;;;;13.68;9.02;;;22.30;83.60;;;24.05;44.60;100707.72;6214545;23;20001;-87
2021/06/25 15:42:28;;;;;;;12.40;9.40;;;22.30;82.50;;;24.08;44.27;100714.59;6162761;23;20443;-87
2021/06/25 15:45:03;;;;;;;15.32;9.35;;;22.30;81.10;;;23.95;44.51;100717.38;6211971;23;20009;-88
2021/06/25 15:53:00;;;;;;;10.85;9.00;;;22.30;79.60;;;23.93;44.05;100713.38;6173031;23;20027;-88
2021/06/25 15:56:27;;;;;;;13.82;8.75;;;22.30;78.90;;;24.01;45.38;100712.75;5993996;24;20019;-86
2021/06/25 16:00:36;;;;;;;;;;;;;;;;;;;;;
2021/06/25 16:07:33;;;;;;;11.73;9.30;;;22.10;84.10;;;23.77;45.28;100701.97;5848482;24;19920;-87
2021/06/25 16:36:44;;;;;;;12.20;9.13;;;21.90;90.30;;;23.65;46.05;100686.41;6162906;23;20351;-91
2021/06/25 16:41:21;;;;;;;;;;;;;;;;;;;;;
2021/06/25 16:45:21;;;;;;;12.70;8.80;;;22.00;87.20;;;23.86;46.08;100687.88;6081639;23;20040;-88
2021/06/25 16:48:06;;;;;;;;;;;22.10;89.40;;;23.69;46.45;100677.75;6158573;23;20013;-90
2021/06/25 16:59:19;;;;;;;10.52;7.90;;;22.00;86.80;;;23.76;46.07;100691.84;6046981;23;20037;-89
2021/06/25 17:02:41;;;;;;;11.52;8.73;;;22.00;90.10;;;23.63;45.42;100689.69;6034275;23;20029;-88
2021/06/25 17:05:45;;;;;;;11.35;9.13;;;21.90;86.20;;;23.63;45.31;100683.97;6070074;23;20026;-89
2021/06/25 17:08:45;;;;;;;;;;;;;;;;;;;;;
2021/06/25 17:11:36;;;;;;;11.30;9.40;;;21.90;91.90;;;23.65;46.51;100677.84;6160762;23;20368;-89
2021/06/25 17:14:40;;;;;;;12.43;8.82;;;21.90;90.70;;;23.57;46.29;100674.38;6169085;23;20064;-87
2021/06/25 17:22:57;;;;;;;;;;;;;;;;;;;;;
2021/06/25 17:26:27;;;;;;;10.88;7.72;;;21.80;93.00;;;23.53;47.03;100681.44;6094321;23;20443;-89
2021/06/25 17:30:06;;;;;;;11.70;7.25;;;21.80;92.70;;;23.59;47.09;100685.34;6135223;23;20044;-88
2021/06/25 17:33:52;;;;;;;9.43;8.32;;;21.70;92.90;;;23.55;47.89;100693.97;6133784;23;20014;-90
2021/06/25 17:40:50;;;;;;;9.52;8.52;;;21.70;94.20;;;23.52;47.65;100697.72;6054479;23;20089;-88
2021/06/25 17:44:45;;;;;;;15.45;9.98;;;21.70;94.20;;;23.51;47.46;100695.31;6143685;23;20020;-90
2021/06/25 17:48:03;;;;;;;17.27;11.90;;;21.70;93.40;;;23.45;48.46;100680.78;6139950;23;20365;-88
2021/06/25 17:55:47;;;;;;;9.10;7.47;;;21.70;94.20;;;23.50;47.50;100685.16;6068408;23;20031;-88
2021/06/25 17:59:56;;;;;;;10.43;7.78;;;21.70;94.30;;;23.56;47.79;100689.91;6060788;23;20015;-90
2021/06/25 18:06:41;;;;;;;17.35;11.48;;;21.70;96.00;;;23.42;48.89;100687.38;6029673;23;20017;-88
2021/06/25 18:14:13;;;;;;;22.77;12.27;;;21.60;96.70;;;23.27;49.01;100688.97;5853424;24;20019;-89
2021/06/25 18:26:53;;;;;;;;;;;;;;;;;;;;;
2021/06/25 20:46:59;;;;;;;13.48;11.18;;;18.50;99.90;;;19.86;66.58;100788.66;6166363;23;20029;-91
2021/06/25 21:02:28;;;;;;;20.13;15.70;;;18.30;99.90;;;19.76;67.84;100808.56;6192015;23;20450;-90
